Terminal Aerodrome Forecast
Issued by NWS

Home | Current Version | Previous Version | Text Only | Print | Product List | Glossary On
Versions: 1 2 3 4 5 6 7 8 9 10 11 12 13 14 15 16 17 18 19 20
000
FTUS43 KGRB 012300
TAFMTW
TAF
KMTW 012321Z 0200/0224 VRB03KT P6SM SCT050 OVC150
     FM020400 36003KT P6SM SCT100
      TEMPO 0208/0212 3SM BR
     FM021400 04005KT P6SM SCT050 SCT080
     FM021800 07007KT P6SM FEW060=

USA.gov is the U.S. government's official web portal to all federal, state and local government web resources and services.